map of PAE home
PAE - Airport
Location
City:  Everett, Washington, United States
Name:Snohomish County Airport
Old (Alt.):Paine Field
ICAO:KPAE
IATA:PAE
FAA LID:PAE

Details
Type:Airport (Part 139 Class IV)
Use:Public/Civil, International (customs landing rights)
Latitude:4754'25"N (47.907000)
Longitude:12216'54"W (-122.281582)
Datum:WGS 1984
Elevation:607 ft (185 m)
Variation:15.86E (WMM2015 magnetic declination)
-0.14 annual change
Runways:3
Longest:9010 × 150 ft (2746 × 45.5 m), paved

Time
Time Zone:UTC-8 (DST-7)
Local Time:

Weather
METAR:KPAE 240753Z AUTO 00000KT 10SM CLR 16/09 A3017 RMK AO2 SLP214 T01610089 402390111
TAF:KPAE 240528Z 2406/2506 36005KT P6SM SKC

Related Locations
Nearby:
Farthest:FTU: 10748 mi / 17298 km
Tolagnaro [Maurillac Airport (Fort Dauphin Airport)], MG

Find:

   beyond  
but within

Other Information
Maps:
NOTAMs:
Links:
Sources:

  
flag of United States
flag of Washington
  

Airport Diagram

Airport diagram for PAE

Airport diagram PDF

Sectional Chart

Flight Planning
at skyvector.com

Satellite Image

Google Maps Satellite view

 

Copyright © 2004-2017 Karl L. Swartz. All rights reserved.
The Great Circle Mapper name and logo are trademarks of the Great Circle Mapper.
All other trademarks mentioned herein belong to their respective owners.
Please see credits for attibutions and further copyright information.

  Follow gcmap on Facebook Follow gcmap on Twitter Follow gcmap on Google+ GCmap on LinkedIn

hCard Microformat

Geo Microformat